Flugplatz Siegerland

Bericht für EDGS

vom 18.09. um 09:50 UTC

Wind 5 kt aus 350°

Sichtweite 10 km oder mehr

aufgelockert bewölkt in 1200 ft

Temperatur 16.0°C

Taupunkt 12.0°C

Luftfeuchtigkeit 77%

Luftdruck 1018 hPa

EDGS 180950Z 35005KT 290V020 9999 SCT012 16/12 Q1018

Prognose für EDGS

vom 18.09. um 08:00 UTC

Zwischen 09:00 UTC und 18:00 UTC

Wind 5 kt aus 10°

Sichtweite 6000 m

aufgebrochene Bewölkung in 1000 ft


Zwischen 09:00 und 11:00 UTC übergehend zu

Wind 5 kt aus 10°

Sichtweite 6000 m

aufgelockert bewölkt in 1500 ft


Zwischen 15:00 und 18:00 UTC übergehend zu

Wind 5 kt aus 70°

Sichtweite 6000 m

aufgelockert bewölkt in 1500 ft

TAF EDGS 180800Z 1809/1818 01005KT 6000 BKN010 BECMG 1809/1811 SCT015 BECMG 1815/1818 07005KT
Impressum